sensor_id;sensor_type;location;lat;lon;timestamp;pressure;altitude;pressure_sealevel;temperature;humidity
63033;BME280;49121;38.932;-9.018;2022-09-27T00:00:47;101732.00;;;16.13;75.00
63033;BME280;49121;38.932;-9.018;2022-09-27T00:03:06;101731.09;;;16.14;75.01
63033;BME280;49121;38.932;-9.018;2022-09-27T00:07:46;101719.06;;;15.96;76.08
63033;BME280;49121;38.932;-9.018;2022-09-27T00:09:47;101719.84;;;16.01;76.09
63033;BME280;49121;38.932;-9.018;2022-09-27T00:11:47;101724.25;;;16.02;75.78
63033;BME280;49121;38.932;-9.018;2022-09-27T00:13:48;101712.91;;;15.94;75.96
63033;BME280;49121;38.932;-9.018;2022-09-27T00:15:54;101720.88;;;15.94;76.39
63033;BME280;49121;38.932;-9.018;2022-09-27T00:17:55;101720.81;;;15.97;75.87
63033;BME280;49121;38.932;-9.018;2022-09-27T00:19:57;101723.56;;;15.92;76.45
63033;BME280;49121;38.932;-9.018;2022-09-27T00:22:03;101726.16;;;15.95;76.72
63033;BME280;49121;38.932;-9.018;2022-09-27T00:24:04;101728.75;;;15.99;76.55
63033;BME280;49121;38.932;-9.018;2022-09-27T00:26:06;101720.84;;;15.95;76.62
63033;BME280;49121;38.932;-9.018;2022-09-27T00:30:47;101715.53;;;15.95;76.79
63033;BME280;49121;38.932;-9.018;2022-09-27T00:32:48;101719.00;;;15.99;76.68
63033;BME280;49121;38.932;-9.018;2022-09-27T00:34:49;101717.28;;;15.97;76.49
63033;BME280;49121;38.932;-9.018;2022-09-27T00:36:50;101708.56;;;15.90;76.60
63033;BME280;49121;38.932;-9.018;2022-09-27T00:38:52;101717.31;;;15.95;76.64
63033;BME280;49121;38.932;-9.018;2022-09-27T00:46:00;101729.72;;;15.94;77.35
63033;BME280;49121;38.932;-9.018;2022-09-27T00:48:04;101731.53;;;15.92;77.47
63033;BME280;49121;38.932;-9.018;2022-09-27T00:52:10;101731.50;;;15.94;77.90
63033;BME280;49121;38.932;-9.018;2022-09-27T00:54:50;101726.25;;;15.91;77.83
63033;BME280;49121;38.932;-9.018;2022-09-27T00:56:54;101707.94;;;15.77;78.37
63033;BME280;49121;38.932;-9.018;2022-09-27T00:59:02;101726.34;;;15.86;78.37
63033;BME280;49121;38.932;-9.018;2022-09-27T01:06:09;101732.56;;;15.85;79.27
63033;BME280;49121;38.932;-9.018;2022-09-27T01:08:09;101734.19;;;15.92;79.40
63033;BME280;49121;38.932;-9.018;2022-09-27T01:10:12;101735.00;;;15.96;79.08
63033;BME280;49121;38.932;-9.018;2022-09-27T01:12:41;101731.31;;;16.03;79.02
63033;BME280;49121;38.932;-9.018;2022-09-27T01:14:55;101727.81;;;16.01;79.10
63033;BME280;49121;38.932;-9.018;2022-09-27T01:22:00;101721.59;;;16.02;79.44
63033;BME280;49121;38.932;-9.018;2022-09-27T01:27:07;101734.00;;;16.02;79.82
63033;BME280;49121;38.932;-9.018;2022-09-27T01:32:19;101711.97;;;15.97;79.81
63033;BME280;49121;38.932;-9.018;2022-09-27T01:44:05;101710.50;;;15.80;81.09
63033;BME280;49121;38.932;-9.018;2022-09-27T01:46:40;101734.22;;;15.89;81.21
63033;BME280;49121;38.932;-9.018;2022-09-27T01:48:56;101727.38;;;15.79;81.74
63033;BME280;49121;38.932;-9.018;2022-09-27T01:51:09;101719.50;;;15.74;82.04
63033;BME280;49121;38.932;-9.018;2022-09-27T01:53:32;101721.13;;;15.82;81.71
63033;BME280;49121;38.932;-9.018;2022-09-27T01:56:01;101703.59;;;15.73;82.41
63033;BME280;49121;38.932;-9.018;2022-09-27T01:58:47;101707.09;;;15.73;82.54
63033;BME280;49121;38.932;-9.018;2022-09-27T02:00:52;101697.34;;;15.76;82.17
63033;BME280;49121;38.932;-9.018;2022-09-27T02:03:39;101710.50;;;15.80;82.12
63033;BME280;49121;38.932;-9.018;2022-09-27T02:05:45;101707.75;;;15.85;82.00
63033;BME280;49121;38.932;-9.018;2022-09-27T02:08:21;101698.28;;;15.73;82.23
63033;BME280;49121;38.932;-9.018;2022-09-27T02:10:28;101707.84;;;15.80;82.02
63033;BME280;49121;38.932;-9.018;2022-09-27T02:15:11;101683.97;;;15.79;81.53
63033;BME280;49121;38.932;-9.018;2022-09-27T02:24:43;101677.63;;;15.87;81.32
63033;BME280;49121;38.932;-9.018;2022-09-27T02:26:55;101704.13;;;15.90;81.64
63033;BME280;49121;38.932;-9.018;2022-09-27T02:29:15;101695.25;;;15.91;81.98
63033;BME280;49121;38.932;-9.018;2022-09-27T02:31:24;101699.81;;;15.85;82.19
63033;BME280;49121;38.932;-9.018;2022-09-27T02:33:33;101694.28;;;15.95;82.08
63033;BME280;49121;38.932;-9.018;2022-09-27T02:35:37;101701.50;;;15.87;82.48
63033;BME280;49121;38.932;-9.018;2022-09-27T02:37:38;101698.94;;;15.84;82.51
63033;BME280;49121;38.932;-9.018;2022-09-27T02:39:39;101695.28;;;15.90;82.50
63033;BME280;49121;38.932;-9.018;2022-09-27T02:41:41;101691.78;;;15.88;82.55
63033;BME280;49121;38.932;-9.018;2022-09-27T02:43:42;101693.50;;;15.92;82.62
63033;BME280;49121;38.932;-9.018;2022-09-27T02:46:15;101671.56;;;15.81;82.73
63033;BME280;49121;38.932;-9.018;2022-09-27T02:53:11;101669.81;;;15.81;83.42
63033;BME280;49121;38.932;-9.018;2022-09-27T02:55:45;101684.88;;;15.79;83.50
63033;BME280;49121;38.932;-9.018;2022-09-27T03:06:38;101682.03;;;15.88;83.29
63033;BME280;49121;38.932;-9.018;2022-09-27T03:08:45;101682.13;;;15.84;83.47
63033;BME280;49121;38.932;-9.018;2022-09-27T03:13:11;101679.69;;;15.73;83.80
63033;BME280;49121;38.932;-9.018;2022-09-27T03:15:30;101679.78;;;15.65;84.26
63033;BME280;49121;38.932;-9.018;2022-09-27T03:17:49;101664.66;;;15.72;83.90
63033;BME280;49121;38.932;-9.018;2022-09-27T03:19:56;101659.22;;;15.78;83.55
63033;BME280;49121;38.932;-9.018;2022-09-27T03:22:15;101667.38;;;15.66;84.07
63033;BME280;49121;38.932;-9.018;2022-09-27T03:24:34;101672.59;;;15.72;83.93
63033;BME280;49121;38.932;-9.018;2022-09-27T03:28:58;101666.59;;;15.61;84.08
63033;BME280;49121;38.932;-9.018;2022-09-27T03:30:58;101671.84;;;15.64;84.16
63033;BME280;49121;38.932;-9.018;2022-09-27T03:33:25;101649.19;;;15.46;84.17
63033;BME280;49121;38.932;-9.018;2022-09-27T03:35:32;101670.03;;;15.66;83.82
63033;BME280;49121;38.932;-9.018;2022-09-27T03:37:52;101669.19;;;15.64;84.17
63033;BME280;49121;38.932;-9.018;2022-09-27T03:42:34;101665.66;;;15.63;83.96
63033;BME280;49121;38.932;-9.018;2022-09-27T03:44:40;101663.97;;;15.59;84.43
63033;BME280;49121;38.932;-9.018;2022-09-27T03:46:43;101663.09;;;15.60;84.27
63033;BME280;49121;38.932;-9.018;2022-09-27T03:48:46;101646.50;;;15.47;84.22
63033;BME280;49121;38.932;-9.018;2022-09-27T03:50:46;101670.19;;;15.60;84.07
63033;BME280;49121;38.932;-9.018;2022-09-27T03:52:47;101673.69;;;15.62;83.83
63033;BME280;49121;38.932;-9.018;2022-09-27T03:54:48;101675.28;;;15.70;83.58
63033;BME280;49121;38.932;-9.018;2022-09-27T03:57:12;101680.72;;;15.63;83.72
63033;BME280;49121;38.932;-9.018;2022-09-27T03:59:14;101681.66;;;15.60;83.95
63033;BME280;49121;38.932;-9.018;2022-09-27T04:01:40;101685.13;;;15.64;83.84
63033;BME280;49121;38.932;-9.018;2022-09-27T04:04:01;101678.09;;;15.61;83.65
63033;BME280;49121;38.932;-9.018;2022-09-27T04:06:06;101670.31;;;15.50;83.48
63033;BME280;49121;38.932;-9.018;2022-09-27T04:08:11;101693.22;;;15.58;83.86
63033;BME280;49121;38.932;-9.018;2022-09-27T04:10:15;101649.28;;;15.40;83.99
63033;BME280;49121;38.932;-9.018;2022-09-27T04:12:34;101687.09;;;15.54;84.50
63033;BME280;49121;38.932;-9.018;2022-09-27T04:14:35;101688.97;;;15.47;84.87
63033;BME280;49121;38.932;-9.018;2022-09-27T04:20:04;101684.34;;;15.59;85.19
63033;BME280;49121;38.932;-9.018;2022-09-27T04:22:23;101672.03;;;15.54;85.56
63033;BME280;49121;38.932;-9.018;2022-09-27T04:24:24;101683.38;;;15.63;85.52
63033;BME280;49121;38.932;-9.018;2022-09-27T04:35:08;101659.09;;;15.36;86.22
63033;BME280;49121;38.932;-9.018;2022-09-27T04:37:27;101675.78;;;15.43;85.79
63033;BME280;49121;38.932;-9.018;2022-09-27T04:44:32;101681.00;;;15.49;85.24
63033;BME280;49121;38.932;-9.018;2022-09-27T04:46:33;101664.44;;;15.34;85.75
63033;BME280;49121;38.932;-9.018;2022-09-27T04:48:36;101665.22;;;15.40;85.39
63033;BME280;49121;38.932;-9.018;2022-09-27T04:50:37;101679.41;;;15.39;85.95
63033;BME280;49121;38.932;-9.018;2022-09-27T04:52:40;101686.50;;;15.37;86.21
63033;BME280;49121;38.932;-9.018;2022-09-27T04:54:41;101676.75;;;15.37;86.34
63033;BME280;49121;38.932;-9.018;2022-09-27T04:57:00;101681.28;;;15.32;86.27
63033;BME280;49121;38.932;-9.018;2022-09-27T04:59:00;101687.38;;;15.37;86.40
63033;BME280;49121;38.932;-9.018;2022-09-27T05:01:01;101683.03;;;15.31;86.35
63033;BME280;49121;38.932;-9.018;2022-09-27T05:03:19;101689.09;;;15.40;86.29
63033;BME280;49121;38.932;-9.018;2022-09-27T05:05:44;101694.50;;;15.33;86.72
63033;BME280;49121;38.932;-9.018;2022-09-27T05:07:45;101697.09;;;15.38;86.64
63033;BME280;49121;38.932;-9.018;2022-09-27T05:10:24;101701.59;;;15.33;86.86
63033;BME280;49121;38.932;-9.018;2022-09-27T05:12:28;101696.28;;;15.33;86.63
63033;BME280;49121;38.932;-9.018;2022-09-27T05:14:32;101698.81;;;15.41;86.36
63033;BME280;49121;38.932;-9.018;2022-09-27T05:16:43;101696.25;;;15.36;86.58
63033;BME280;49121;38.932;-9.018;2022-09-27T05:19:03;101662.91;;;15.20;86.53
63033;BME280;49121;38.932;-9.018;2022-09-27T05:21:36;101688.34;;;15.31;86.64
63033;BME280;49121;38.932;-9.018;2022-09-27T05:23:37;101691.78;;;15.38;86.20
63033;BME280;49121;38.932;-9.018;2022-09-27T05:25:56;101696.19;;;15.38;86.08
63033;BME280;49121;38.932;-9.018;2022-09-27T05:28:00;101686.59;;;15.32;86.22
63033;BME280;49121;38.932;-9.018;2022-09-27T05:30:01;101701.66;;;15.30;86.36
63033;BME280;49121;38.932;-9.018;2022-09-27T05:32:11;101692.00;;;15.24;86.28
63033;BME280;49121;38.932;-9.018;2022-09-27T05:34:12;101708.78;;;15.25;86.48
63033;BME280;49121;38.932;-9.018;2022-09-27T05:36:17;101701.66;;;15.30;86.09
63033;BME280;49121;38.932;-9.018;2022-09-27T05:38:19;101709.63;;;15.30;86.21
63033;BME280;49121;38.932;-9.018;2022-09-27T05:45:34;101709.69;;;15.25;85.91
63033;BME280;49121;38.932;-9.018;2022-09-27T05:47:37;101713.16;;;15.29;85.55
63033;BME280;49121;38.932;-9.018;2022-09-27T05:52:54;101716.81;;;15.22;85.80
63033;BME280;49121;38.932;-9.018;2022-09-27T05:54:56;101707.94;;;15.23;85.89
63033;BME280;49121;38.932;-9.018;2022-09-27T05:56:57;101709.72;;;15.24;86.05
63033;BME280;49121;38.932;-9.018;2022-09-27T05:59:20;101702.63;;;15.23;86.04
63033;BME280;49121;38.932;-9.018;2022-09-27T06:02:15;101710.53;;;15.27;85.93
63033;BME280;49121;38.932;-9.018;2022-09-27T06:04:36;101711.50;;;15.23;85.93
63033;BME280;49121;38.932;-9.018;2022-09-27T06:06:55;101714.03;;;15.29;85.98
63033;BME280;49121;38.932;-9.018;2022-09-27T06:13:59;101729.16;;;15.24;86.36
63033;BME280;49121;38.932;-9.018;2022-09-27T06:16:02;101723.06;;;15.19;86.69
63033;BME280;49121;38.932;-9.018;2022-09-27T06:18:21;101727.50;;;15.17;86.79
63033;BME280;49121;38.932;-9.018;2022-09-27T06:20:24;101722.28;;;15.12;86.81
63033;BME280;49121;38.932;-9.018;2022-09-27T06:22:24;101728.47;;;15.13;86.63
63033;BME280;49121;38.932;-9.018;2022-09-27T06:29:51;101738.22;;;15.11;86.22
63033;BME280;49121;38.932;-9.018;2022-09-27T06:32:06;101731.88;;;15.21;85.58
63033;BME280;49121;38.932;-9.018;2022-09-27T06:34:15;101732.81;;;15.16;84.81
63033;BME280;49121;38.932;-9.018;2022-09-27T06:36:17;101734.56;;;15.17;84.12
63033;BME280;49121;38.932;-9.018;2022-09-27T06:38:18;101719.63;;;15.12;83.86
63033;BME280;49121;38.932;-9.018;2022-09-27T06:40:27;101742.50;;;15.20;83.88
63033;BME280;49121;38.932;-9.018;2022-09-27T06:42:48;101750.38;;;15.24;83.15
63033;BME280;49121;38.932;-9.018;2022-09-27T06:45:08;101755.63;;;15.27;82.95
63033;BME280;49121;38.932;-9.018;2022-09-27T06:47:27;101744.91;;;15.33;82.14
63033;BME280;49121;38.932;-9.018;2022-09-27T06:49:48;101739.75;;;15.24;81.90
63033;BME280;49121;38.932;-9.018;2022-09-27T06:51:52;101738.88;;;15.25;81.71
63033;BME280;49121;38.932;-9.018;2022-09-27T06:53:55;101761.59;;;15.42;81.34
63033;BME280;49121;38.932;-9.018;2022-09-27T06:55:56;101758.84;;;15.46;80.99
63033;BME280;49121;38.932;-9.018;2022-09-27T06:58:00;101759.66;;;15.51;80.75
63033;BME280;49121;38.932;-9.018;2022-09-27T07:00:40;101756.84;;;15.61;80.26
63033;BME280;49121;38.932;-9.018;2022-09-27T07:02:59;101759.38;;;15.68;79.53
63033;BME280;49121;38.932;-9.018;2022-09-27T07:05:27;101764.63;;;15.70;79.69
63033;BME280;49121;38.932;-9.018;2022-09-27T07:07:57;101767.09;;;15.85;79.59
63033;BME280;49121;38.932;-9.018;2022-09-27T07:09:58;101765.97;;;15.95;79.12
63033;BME280;49121;38.932;-9.018;2022-09-27T07:12:01;101775.13;;;16.27;78.34
63033;BME280;49121;38.932;-9.018;2022-09-27T07:14:02;101772.25;;;16.82;75.59
63033;BME280;49121;38.932;-9.018;2022-09-27T07:16:04;101785.38;;;17.63;72.07
63033;BME280;49121;38.932;-9.018;2022-09-27T07:18:05;101779.72;;;18.11;69.33
63033;BME280;49121;38.932;-9.018;2022-09-27T07:20:07;101795.97;;;18.34;67.96
63033;BME280;49121;38.932;-9.018;2022-09-27T07:22:09;101796.13;;;18.89;65.38
63033;BME280;49121;38.932;-9.018;2022-09-27T07:24:15;101791.53;;;18.96;65.58
63033;BME280;49121;38.932;-9.018;2022-09-27T07:26:17;101798.28;;;19.63;62.09
63033;BME280;49121;38.932;-9.018;2022-09-27T07:28:18;101799.72;;;19.73;61.78
63033;BME280;49121;38.932;-9.018;2022-09-27T07:30:21;101803.06;;;20.05;60.75
63033;BME280;49121;38.932;-9.018;2022-09-27T07:32:24;101820.16;;;20.26;59.54
63033;BME280;49121;38.932;-9.018;2022-09-27T07:34:26;101816.75;;;20.46;58.79
63033;BME280;49121;38.932;-9.018;2022-09-27T07:36:28;101816.66;;;20.49;59.04
63033;BME280;49121;38.932;-9.018;2022-09-27T07:38:31;101812.31;;;20.21;59.93
63033;BME280;49121;38.932;-9.018;2022-09-27T07:40:39;101814.53;;;20.08;61.26
63033;BME280;49121;38.932;-9.018;2022-09-27T07:42:56;101815.81;;;19.96;61.69
63033;BME280;49121;38.932;-9.018;2022-09-27T07:44:58;101814.63;;;20.05;61.38
63033;BME280;49121;38.932;-9.018;2022-09-27T07:47:17;101800.28;;;19.56;63.16
63033;BME280;49121;38.932;-9.018;2022-09-27T07:49:37;101813.91;;;20.50;60.14
63033;BME280;49121;38.932;-9.018;2022-09-27T07:51:58;101827.81;;;21.07;57.98
63033;BME280;49121;38.932;-9.018;2022-09-27T07:54:22;101811.38;;;20.71;58.80
63033;BME280;49121;38.932;-9.018;2022-09-27T07:56:46;101807.44;;;19.82;61.80
63033;BME280;49121;38.932;-9.018;2022-09-27T07:58:51;101813.22;;;20.20;61.18
63033;BME280;49121;38.932;-9.018;2022-09-27T08:00:52;101831.72;;;21.44;56.91
63033;BME280;49121;38.932;-9.018;2022-09-27T08:02:54;101811.56;;;21.57;56.47
63033;BME280;49121;38.932;-9.018;2022-09-27T08:04:55;101827.72;;;21.76;55.87
63033;BME280;49121;38.932;-9.018;2022-09-27T08:06:59;101841.44;;;22.11;54.20
63033;BME280;49121;38.932;-9.018;2022-09-27T08:09:09;101830.94;;;21.64;55.80
63033;BME280;49121;38.932;-9.018;2022-09-27T08:11:12;101836.16;;;21.67;55.84
63033;BME280;49121;38.932;-9.018;2022-09-27T08:13:15;101846.03;;;22.08;54.60
63033;BME280;49121;38.932;-9.018;2022-09-27T08:15:23;101843.56;;;22.03;53.76
63033;BME280;49121;38.932;-9.018;2022-09-27T08:17:30;101831.47;;;22.35;52.78
63033;BME280;49121;38.932;-9.018;2022-09-27T08:19:41;101827.97;;;21.26;55.79
63033;BME280;49121;38.932;-9.018;2022-09-27T08:22:09;101838.84;;;21.45;56.25
63033;BME280;49121;38.932;-9.018;2022-09-27T08:24:26;101849.72;;;20.95;57.31
63033;BME280;49121;38.932;-9.018;2022-09-27T08:26:48;101850.84;;;21.35;56.51
63033;BME280;49121;38.932;-9.018;2022-09-27T08:29:01;101848.66;;;22.09;54.56
63033;BME280;49121;38.932;-9.018;2022-09-27T08:31:05;101865.47;;;21.92;54.10
63033;BME280;49121;38.932;-9.018;2022-09-27T08:33:08;101872.81;;;22.50;52.84
63033;BME280;49121;38.932;-9.018;2022-09-27T08:35:09;101865.47;;;22.35;52.21
63033;BME280;49121;38.932;-9.018;2022-09-27T08:37:15;101876.50;;;22.07;53.01
63033;BME280;49121;38.932;-9.018;2022-09-27T08:39:22;101861.34;;;21.17;55.63
63033;BME280;49121;38.932;-9.018;2022-09-27T08:41:38;101878.03;;;22.12;52.46
63033;BME280;49121;38.932;-9.018;2022-09-27T08:48:04;101880.88;;;22.30;50.71
63033;BME280;49121;38.932;-9.018;2022-09-27T08:52:35;101890.22;;;22.19;50.56
63033;BME280;49121;38.932;-9.018;2022-09-27T08:54:44;101891.38;;;22.94;49.32
63033;BME280;49121;38.932;-9.018;2022-09-27T08:56:48;101884.50;;;22.89;49.10
63033;BME280;49121;38.932;-9.018;2022-09-27T08:58:53;101869.13;;;22.53;49.87
63033;BME280;49121;38.932;-9.018;2022-09-27T09:01:05;101841.63;;;22.87;48.26
63033;BME280;49121;38.932;-9.018;2022-09-27T09:03:18;101894.56;;;23.04;47.98
63033;BME280;49121;38.932;-9.018;2022-09-27T09:05:31;101906.63;;;22.94;47.88
63033;BME280;49121;38.932;-9.018;2022-09-27T09:10:05;101889.22;;;22.01;51.10
63033;BME280;49121;38.932;-9.018;2022-09-27T09:19:38;101904.41;;;23.97;45.81
63033;BME280;49121;38.932;-9.018;2022-09-27T09:26:44;101908.91;;;23.60;45.95
63033;BME280;49121;38.932;-9.018;2022-09-27T09:33:31;101907.97;;;22.01;48.85
63033;BME280;49121;38.932;-9.018;2022-09-27T09:35:40;101905.63;;;21.72;49.02
63033;BME280;49121;38.932;-9.018;2022-09-27T09:37:53;101912.84;;;21.24;50.73
63033;BME280;49121;38.932;-9.018;2022-09-27T09:39:59;101922.63;;;21.01;51.11
63033;BME280;49121;38.932;-9.018;2022-09-27T09:44:20;101917.16;;;21.04;51.10
63033;BME280;49121;38.932;-9.018;2022-09-27T09:46:44;101932.06;;;21.12;51.20
63033;BME280;49121;38.932;-9.018;2022-09-27T09:49:29;101933.63;;;20.94;51.21
63033;BME280;49121;38.932;-9.018;2022-09-27T09:51:28;101913.25;;;21.13;51.02
63033;BME280;49121;38.932;-9.018;2022-09-27T09:56:02;101909.72;;;21.13;51.00
63033;BME280;49121;38.932;-9.018;2022-09-27T10:00:21;101920.44;;;21.13;52.03
63033;BME280;49121;38.932;-9.018;2022-09-27T10:04:58;101915.13;;;21.35;50.94
63033;BME280;49121;38.932;-9.018;2022-09-27T10:07:01;101912.63;;;21.30;50.91
63033;BME280;49121;38.932;-9.018;2022-09-27T10:09:10;101917.78;;;21.35;51.07
63033;BME280;49121;38.932;-9.018;2022-09-27T10:11:38;101902.41;;;21.40;51.35
63033;BME280;49121;38.932;-9.018;2022-09-27T10:13:46;101903.72;;;21.53;50.99
63033;BME280;49121;38.932;-9.018;2022-09-27T10:16:09;101917.41;;;21.68;50.48
63033;BME280;49121;38.932;-9.018;2022-09-27T10:18:16;101918.47;;;21.63;51.31
63033;BME280;49121;38.932;-9.018;2022-09-27T10:20:38;101893.91;;;21.52;51.15
63033;BME280;49121;38.932;-9.018;2022-09-27T10:22:47;101915.78;;;21.63;51.44
63033;BME280;49121;38.932;-9.018;2022-09-27T10:25:13;101920.09;;;21.90;50.52
63033;BME280;49121;38.932;-9.018;2022-09-27T10:27:25;101904.19;;;21.85;50.29
63033;BME280;49121;38.932;-9.018;2022-09-27T10:29:34;101927.00;;;21.95;50.30
63033;BME280;49121;38.932;-9.018;2022-09-27T10:31:37;101910.00;;;21.96;50.02
63033;BME280;49121;38.932;-9.018;2022-09-27T10:34:01;101902.16;;;21.92;50.54
63033;BME280;49121;38.932;-9.018;2022-09-27T10:36:24;101897.59;;;22.14;49.87
63033;BME280;49121;38.932;-9.018;2022-09-27T10:38:34;101908.59;;;22.30;49.72
63033;BME280;49121;38.932;-9.018;2022-09-27T10:40:44;101897.41;;;22.19;49.27
63033;BME280;49121;38.932;-9.018;2022-09-27T10:42:46;101903.53;;;22.22;49.64
63033;BME280;49121;38.932;-9.018;2022-09-27T10:44:47;101897.28;;;22.22;50.01
63033;BME280;49121;38.932;-9.018;2022-09-27T10:47:06;101879.94;;;22.09;49.63
63033;BME280;49121;38.932;-9.018;2022-09-27T10:51:29;101898.31;;;22.60;48.94
63033;BME280;49121;38.932;-9.018;2022-09-27T10:53:35;101897.31;;;22.63;48.76
63033;BME280;49121;38.932;-9.018;2022-09-27T10:55:47;101897.97;;;22.68;48.16
63033;BME280;49121;38.932;-9.018;2022-09-27T10:57:54;101883.66;;;22.67;48.68
63033;BME280;49121;38.932;-9.018;2022-09-27T10:59:58;101891.44;;;22.74;47.81
63033;BME280;49121;38.932;-9.018;2022-09-27T11:02:00;101890.16;;;22.82;48.42
63033;BME280;49121;38.932;-9.018;2022-09-27T11:04:24;101883.69;;;22.86;48.02
63033;BME280;49121;38.932;-9.018;2022-09-27T11:06:31;101864.53;;;22.75;48.25
63033;BME280;49121;38.932;-9.018;2022-09-27T11:08:38;101877.91;;;22.96;48.06
63033;BME280;49121;38.932;-9.018;2022-09-27T11:11:15;101887.53;;;23.01;47.01
63033;BME280;49121;38.932;-9.018;2022-09-27T11:13:19;101881.31;;;22.99;46.79
63033;BME280;49121;38.932;-9.018;2022-09-27T11:15:25;101884.63;;;22.85;47.05
63033;BME280;49121;38.932;-9.018;2022-09-27T11:17:55;101885.81;;;22.80;47.26
63033;BME280;49121;38.932;-9.018;2022-09-27T11:24:46;101881.28;;;23.01;46.73
63033;BME280;49121;38.932;-9.018;2022-09-27T11:27:08;101888.16;;;23.06;46.46
63033;BME280;49121;38.932;-9.018;2022-09-27T11:29:24;101883.31;;;22.94;47.04
63033;BME280;49121;38.932;-9.018;2022-09-27T11:32:03;101882.81;;;23.06;46.93
63033;BME280;49121;38.932;-9.018;2022-09-27T11:34:27;101909.94;;;23.19;46.66
63033;BME280;49121;38.932;-9.018;2022-09-27T11:44:12;101890.50;;;23.14;46.56
63033;BME280;49121;38.932;-9.018;2022-09-27T11:46:31;101876.78;;;23.01;46.86
63033;BME280;49121;38.932;-9.018;2022-09-27T11:48:57;101860.44;;;23.06;47.21
63033;BME280;49121;38.932;-9.018;2022-09-27T11:53:20;101887.59;;;23.19;46.67
63033;BME280;49121;38.932;-9.018;2022-09-27T11:58:19;101859.03;;;22.78;47.40
63033;BME280;49121;38.932;-9.018;2022-09-27T12:09:53;101862.34;;;23.04;47.14
63033;BME280;49121;38.932;-9.018;2022-09-27T12:12:02;101863.88;;;22.89;47.88
63033;BME280;49121;38.932;-9.018;2022-09-27T12:14:44;101869.09;;;22.92;48.28
63033;BME280;49121;38.932;-9.018;2022-09-27T12:16:52;101857.22;;;22.98;47.93
63033;BME280;49121;38.932;-9.018;2022-09-27T12:18:56;101868.75;;;23.00;47.65
63033;BME280;49121;38.932;-9.018;2022-09-27T12:21:15;101853.03;;;23.11;47.68
63033;BME280;49121;38.932;-9.018;2022-09-27T12:23:17;101858.09;;;22.98;47.59
63033;BME280;49121;38.932;-9.018;2022-09-27T12:25:35;101865.50;;;22.93;47.43
63033;BME280;49121;38.932;-9.018;2022-09-27T12:28:00;101840.78;;;22.66;47.60
63033;BME280;49121;38.932;-9.018;2022-09-27T12:30:04;101858.66;;;22.67;48.69
63033;BME280;49121;38.932;-9.018;2022-09-27T12:32:14;101867.50;;;22.69;48.85
63033;BME280;49121;38.932;-9.018;2022-09-27T12:34:36;101846.00;;;22.50;49.36
63033;BME280;49121;38.932;-9.018;2022-09-27T12:36:42;101865.13;;;22.82;48.33
63033;BME280;49121;38.932;-9.018;2022-09-27T12:39:09;101870.88;;;22.93;47.95
63033;BME280;49121;38.932;-9.018;2022-09-27T12:41:20;101829.72;;;22.93;49.22
63033;BME280;49121;38.932;-9.018;2022-09-27T12:43:47;101848.34;;;23.16;48.12
63033;BME280;49121;38.932;-9.018;2022-09-27T12:50:43;101840.53;;;22.91;48.89
63033;BME280;49121;38.932;-9.018;2022-09-27T12:52:52;101838.50;;;23.15;47.51
63033;BME280;49121;38.932;-9.018;2022-09-27T12:57:44;101839.47;;;23.14;48.78
63033;BME280;49121;38.932;-9.018;2022-09-27T13:00:18;101842.34;;;23.28;47.51
63033;BME280;49121;38.932;-9.018;2022-09-27T13:12:12;101817.31;;;23.09;47.80
63033;BME280;49121;38.932;-9.018;2022-09-27T13:14:21;101796.31;;;22.98;47.99
63033;BME280;49121;38.932;-9.018;2022-09-27T13:16:40;101816.31;;;23.12;48.67
63033;BME280;49121;38.932;-9.018;2022-09-27T13:20:49;101786.97;;;22.69;48.45
63033;BME280;49121;38.932;-9.018;2022-09-27T13:27:58;101819.22;;;22.88;49.37
63033;BME280;49121;38.932;-9.018;2022-09-27T13:30:45;101803.16;;;22.86;49.51
63033;BME280;49121;38.932;-9.018;2022-09-27T13:35:30;101808.75;;;22.82;49.92
63033;BME280;49121;38.932;-9.018;2022-09-27T13:37:46;101838.41;;;22.79;50.10
63033;BME280;49121;38.932;-9.018;2022-09-27T13:40:30;101809.28;;;22.51;50.79
63033;BME280;49121;38.932;-9.018;2022-09-27T13:42:39;101794.56;;;22.59;50.14
63033;BME280;49121;38.932;-9.018;2022-09-27T13:45:19;101804.28;;;22.62;50.92
63033;BME280;49121;38.932;-9.018;2022-09-27T13:47:26;101797.72;;;22.69;51.00
63033;BME280;49121;38.932;-9.018;2022-09-27T13:49:37;101797.06;;;22.83;50.64
63033;BME280;49121;38.932;-9.018;2022-09-27T13:51:53;101788.59;;;22.73;50.09
63033;BME280;49121;38.932;-9.018;2022-09-27T13:54:05;101779.22;;;22.82;50.34
63033;BME280;49121;38.932;-9.018;2022-09-27T13:58:53;101796.59;;;22.92;48.39
63033;BME280;49121;38.932;-9.018;2022-09-27T14:01:28;101789.28;;;22.96;49.33
63033;BME280;49121;38.932;-9.018;2022-09-27T14:04:04;101768.69;;;23.15;49.68
63033;BME280;49121;38.932;-9.018;2022-09-27T14:06:25;101756.88;;;23.00;49.76
63033;BME280;49121;38.932;-9.018;2022-09-27T14:10:42;101760.00;;;23.10;49.37
63033;BME280;49121;38.932;-9.018;2022-09-27T14:13:02;101757.75;;;23.01;49.66
63033;BME280;49121;38.932;-9.018;2022-09-27T14:17:41;101758.03;;;23.14;50.74
63033;BME280;49121;38.932;-9.018;2022-09-27T14:19:46;101753.44;;;22.97;51.40
63033;BME280;49121;38.932;-9.018;2022-09-27T14:22:28;101752.78;;;23.11;49.88
63033;BME280;49121;38.932;-9.018;2022-09-27T14:24:32;101771.50;;;22.93;50.62
63033;BME280;49121;38.932;-9.018;2022-09-27T14:29:41;101768.03;;;22.91;51.04
63033;BME280;49121;38.932;-9.018;2022-09-27T14:32:01;101763.81;;;22.85;51.11
63033;BME280;49121;38.932;-9.018;2022-09-27T14:34:12;101751.81;;;22.75;51.32
63033;BME280;49121;38.932;-9.018;2022-09-27T14:36:25;101749.53;;;22.85;50.77
63033;BME280;49121;38.932;-9.018;2022-09-27T14:39:37;101756.72;;;22.84;51.35
63033;BME280;49121;38.932;-9.018;2022-09-27T14:41:35;101747.81;;;22.65;50.97
63033;BME280;49121;38.932;-9.018;2022-09-27T14:43:42;101751.00;;;22.73;51.22
63033;BME280;49121;38.932;-9.018;2022-09-27T14:50:23;101737.06;;;22.65;50.41